Deering, AK

9:11 PM AKST on December 03, 2016 (GMT -0900)
Deering (New) | | Change Station

Elev 16 ft 66.07 °N, 162.77 °W | Updated 18 minutes ago

Clear
Clear
-13 °F
Feels Like -27 °F
N
6
Wind Variable Wind from SW

Today
High -- | Low -- °F
--% Chance of Precip.
Yesterday
High -- | Low -- °F
Precip. -- in
Pressure 30.62 in
Visibility 10.0 miles
Clouds Clear
Windchill -27 °F
Dew Point -21 °F
Humidity 68%
Rainfall 0.00 in
Snow Depth Not available.
11:49 AM 3:32 PM
Waxing Crescent, 20% visible
METAR PADE 040553Z AUTO 22005KT 10SM CLR M25/M29 A3061 RMK AO2 SLP367 I6000 T12501294 11222 21267 53017 TSNO
Pressure 30.62 in
Visibility 10.0 miles
Clouds Clear
Windchill -27 °F
Dew Point -21 °F
Humidity 68%
Rainfall 0.00 in
Snow Depth Not available.
11:49 AM 3:32 PM
Waxing Crescent, 20% visible
METAR PADE 040553Z AUTO 22005KT 10SM CLR M25/M29 A3061 RMK AO2 SLP367 I6000 T12501294 11222 21267 53017 TSNO

10-Day Weather Forecast

Almanac

Astronomy

Dec. 03, 2016 Rise Set
Actual Time
Civil Twilight
Nautical Twilight
Astronomical Twilight
Moon
Length of Visible Light
Length of Day
Tomorrow will be .
, % of the Moon is Illuminated

Today's Extremes

State Highs State Lows

Community

WunderPhotos

Upload Photos

1,955,586 photos uploaded!

WunderBlog® & News

Nearby

Air Quality

  Air Quality AQ Index Pollutant
Not available.

Snow Depth

Station Depth Elevation

Earthquake Activity

City Distance Mag. Time & Date
Minimum magnitude displayed is 2.5.

Coastal Water Temperatures

Place Temperature

Stations

Nearby Weather Stations

Station Location Temp. Windchill Dew Point Humidity Wind Precip. Elev Updated Type
                   

Watches & Warnings

There are currently no watches in effect.